sensor_id;sensor_type;location;lat;lon;timestamp;pressure;altitude;pressure_sealevel;temperature;humidity
55517;BME280;41724;51.176;-0.708;2023-03-21T00:01:13;100869.15;;;10.81;78.52
55517;BME280;41724;51.176;-0.708;2023-03-21T00:03:41;100865.30;;;11.79;77.20
55517;BME280;41724;51.176;-0.708;2023-03-21T00:06:11;100864.74;;;11.32;78.06
55517;BME280;41724;51.176;-0.708;2023-03-21T00:08:39;100861.99;;;12.07;77.16
55517;BME280;41724;51.176;-0.708;2023-03-21T00:11:08;100859.34;;;11.39;78.48
55517;BME280;41724;51.176;-0.708;2023-03-21T00:13:35;100861.47;;;11.60;79.22
55517;BME280;41724;51.176;-0.708;2023-03-21T00:16:04;100859.29;;;11.40;78.76
55517;BME280;41724;51.176;-0.708;2023-03-21T00:18:31;100854.09;;;11.76;78.00
55517;BME280;41724;51.176;-0.708;2023-03-21T00:20:59;100843.24;;;11.85;77.65
55517;BME280;41724;51.176;-0.708;2023-03-21T00:23:28;100842.37;;;11.10;79.00
55517;BME280;41724;51.176;-0.708;2023-03-21T00:25:56;100843.31;;;11.13;81.18
55517;BME280;41724;51.176;-0.708;2023-03-21T00:28:23;100842.32;;;11.40;78.91
55517;BME280;41724;51.176;-0.708;2023-03-21T00:30:55;100836.67;;;11.31;79.73
55517;BME280;41724;51.176;-0.708;2023-03-21T00:33:23;100832.46;;;10.70;81.17
55517;BME280;41724;51.176;-0.708;2023-03-21T00:35:50;100830.86;;;10.26;81.93
55517;BME280;41724;51.176;-0.708;2023-03-21T00:38:18;100823.28;;;10.37;81.89
55517;BME280;41724;51.176;-0.708;2023-03-21T00:40:46;100824.00;;;9.89;84.25
55517;BME280;41724;51.176;-0.708;2023-03-21T00:43:13;100816.64;;;10.36;81.80
55517;BME280;41724;51.176;-0.708;2023-03-21T00:45:40;100814.01;;;9.90;85.03
55517;BME280;41724;51.176;-0.708;2023-03-21T00:48:08;100811.57;;;9.88;86.33
55517;BME280;41724;51.176;-0.708;2023-03-21T00:50:35;100807.30;;;10.40;83.07
55517;BME280;41724;51.176;-0.708;2023-03-21T00:53:02;100803.96;;;10.75;82.59
55517;BME280;41724;51.176;-0.708;2023-03-21T00:55:30;100801.86;;;11.17;80.01
55517;BME280;41724;51.176;-0.708;2023-03-21T00:57:57;100799.79;;;10.47;83.10
55517;BME280;41724;51.176;-0.708;2023-03-21T01:00:26;100799.18;;;10.26;81.76
55517;BME280;41724;51.176;-0.708;2023-03-21T01:02:54;100803.19;;;10.85;80.71
55517;BME280;41724;51.176;-0.708;2023-03-21T01:05:24;100799.40;;;11.11;79.67
55517;BME280;41724;51.176;-0.708;2023-03-21T01:07:52;100794.71;;;10.80;79.75
55517;BME280;41724;51.176;-0.708;2023-03-21T01:10:19;100799.09;;;10.54;81.37
55517;BME280;41724;51.176;-0.708;2023-03-21T01:12:46;100798.75;;;11.02;79.46
55517;BME280;41724;51.176;-0.708;2023-03-21T01:15:13;100800.73;;;11.37;77.76
55517;BME280;41724;51.176;-0.708;2023-03-21T01:17:41;100788.36;;;10.26;81.38
55517;BME280;41724;51.176;-0.708;2023-03-21T01:20:09;100777.75;;;10.73;80.02
55517;BME280;41724;51.176;-0.708;2023-03-21T01:22:36;100780.32;;;10.99;80.43
55517;BME280;41724;51.176;-0.708;2023-03-21T01:25:03;100781.84;;;10.08;84.05
55517;BME280;41724;51.176;-0.708;2023-03-21T01:27:30;100774.79;;;10.43;81.54
55517;BME280;41724;51.176;-0.708;2023-03-21T01:29:57;100774.21;;;9.65;84.50
55517;BME280;41724;51.176;-0.708;2023-03-21T01:32:24;100769.21;;;10.44;82.84
55517;BME280;41724;51.176;-0.708;2023-03-21T01:34:51;100772.71;;;10.58;82.91
55517;BME280;41724;51.176;-0.708;2023-03-21T01:37:18;100765.10;;;10.63;81.17
55517;BME280;41724;51.176;-0.708;2023-03-21T01:39:45;100768.37;;;11.16;78.36
55517;BME280;41724;51.176;-0.708;2023-03-21T01:42:12;100765.23;;;10.74;80.27
55517;BME280;41724;51.176;-0.708;2023-03-21T01:44:58;100763.39;;;11.34;79.19
55517;BME280;41724;51.176;-0.708;2023-03-21T01:47:25;100758.61;;;10.67;79.90
55517;BME280;41724;51.176;-0.708;2023-03-21T01:49:58;100749.59;;;11.59;77.37
55517;BME280;41724;51.176;-0.708;2023-03-21T01:52:30;100745.47;;;11.85;76.16
55517;BME280;41724;51.176;-0.708;2023-03-21T01:54:59;100741.00;;;10.57;79.12
55517;BME280;41724;51.176;-0.708;2023-03-21T01:57:31;100745.53;;;10.07;80.59
55517;BME280;41724;51.176;-0.708;2023-03-21T02:00:02;100743.66;;;10.07;81.32
55517;BME280;41724;51.176;-0.708;2023-03-21T02:02:30;100749.57;;;10.35;80.85
55517;BME280;41724;51.176;-0.708;2023-03-21T02:04:58;100754.30;;;10.66;79.34
55517;BME280;41724;51.176;-0.708;2023-03-21T02:07:33;100753.28;;;11.54;76.89
55517;BME280;41724;51.176;-0.708;2023-03-21T02:10:06;100751.86;;;11.58;75.25
55517;BME280;41724;51.176;-0.708;2023-03-21T02:12:33;100754.01;;;11.13;77.20
55517;BME280;41724;51.176;-0.708;2023-03-21T02:15:01;100753.66;;;9.35;81.70
55517;BME280;41724;51.176;-0.708;2023-03-21T02:17:32;100745.78;;;10.22;80.58
55517;BME280;41724;51.176;-0.708;2023-03-21T02:20:20;100745.76;;;10.77;78.51
55517;BME280;41724;51.176;-0.708;2023-03-21T02:23:09;100735.66;;;11.45;75.51
55517;BME280;41724;51.176;-0.708;2023-03-21T02:26:14;100724.24;;;10.96;76.48
55517;BME280;41724;51.176;-0.708;2023-03-21T02:28:49;100714.52;;;10.90;75.38
55517;BME280;41724;51.176;-0.708;2023-03-21T02:31:28;100708.49;;;10.97;76.34
55517;BME280;41724;51.176;-0.708;2023-03-21T02:34:20;100704.50;;;11.73;74.56
55517;BME280;41724;51.176;-0.708;2023-03-21T02:37:04;100710.50;;;11.62;72.92
55517;BME280;41724;51.176;-0.708;2023-03-21T02:39:43;100712.14;;;11.81;72.44
55517;BME280;41724;51.176;-0.708;2023-03-21T02:42:20;100715.97;;;11.23;75.80
55517;BME280;41724;51.176;-0.708;2023-03-21T02:44:56;100710.58;;;10.59;76.01
55517;BME280;41724;51.176;-0.708;2023-03-21T02:47:28;100709.13;;;10.92;76.07
55517;BME280;41724;51.176;-0.708;2023-03-21T02:50:07;100710.26;;;10.65;77.56
55517;BME280;41724;51.176;-0.708;2023-03-21T02:52:36;100696.20;;;9.03;82.11
55517;BME280;41724;51.176;-0.708;2023-03-21T02:55:07;100698.95;;;10.70;78.06
55517;BME280;41724;51.176;-0.708;2023-03-21T02:57:35;100686.25;;;10.74;77.27
55517;BME280;41724;51.176;-0.708;2023-03-21T03:00:03;100682.73;;;10.37;77.93
55517;BME280;41724;51.176;-0.708;2023-03-21T03:02:31;100685.93;;;10.60;75.66
55517;BME280;41724;51.176;-0.708;2023-03-21T03:04:58;100696.14;;;10.59;75.04
55517;BME280;41724;51.176;-0.708;2023-03-21T03:07:35;100687.62;;;9.90;78.82
55517;BME280;41724;51.176;-0.708;2023-03-21T03:10:20;100687.96;;;10.14;78.58
55517;BME280;41724;51.176;-0.708;2023-03-21T03:13:00;100685.36;;;10.20;75.27
55517;BME280;41724;51.176;-0.708;2023-03-21T03:15:37;100683.20;;;10.46;76.85
55517;BME280;41724;51.176;-0.708;2023-03-21T03:18:13;100670.30;;;10.52;76.76
55517;BME280;41724;51.176;-0.708;2023-03-21T03:20:50;100666.26;;;10.77;73.73
55517;BME280;41724;51.176;-0.708;2023-03-21T03:23:27;100668.85;;;9.50;78.64
55517;BME280;41724;51.176;-0.708;2023-03-21T03:25:59;100659.60;;;10.13;78.22
55517;BME280;41724;51.176;-0.708;2023-03-21T03:28:32;100655.18;;;10.63;75.94
55517;BME280;41724;51.176;-0.708;2023-03-21T03:31:04;100652.76;;;9.70;77.24
55517;BME280;41724;51.176;-0.708;2023-03-21T03:33:35;100646.11;;;9.88;78.10
55517;BME280;41724;51.176;-0.708;2023-03-21T03:36:08;100645.39;;;10.86;75.74
55517;BME280;41724;51.176;-0.708;2023-03-21T03:38:37;100634.40;;;11.05;73.17
55517;BME280;41724;51.176;-0.708;2023-03-21T03:41:09;100632.46;;;10.51;75.48
55517;BME280;41724;51.176;-0.708;2023-03-21T03:43:42;100643.74;;;10.67;73.83
55517;BME280;41724;51.176;-0.708;2023-03-21T03:46:18;100627.49;;;10.68;74.14
55517;BME280;41724;51.176;-0.708;2023-03-21T03:48:49;100627.63;;;11.34;73.23
55517;BME280;41724;51.176;-0.708;2023-03-21T03:51:23;100631.51;;;11.75;71.88
55517;BME280;41724;51.176;-0.708;2023-03-21T03:53:54;100614.15;;;11.13;73.30
55517;BME280;41724;51.176;-0.708;2023-03-21T03:56:23;100623.47;;;11.39;74.37
55517;BME280;41724;51.176;-0.708;2023-03-21T03:58:51;100624.01;;;11.71;74.17
55517;BME280;41724;51.176;-0.708;2023-03-21T04:01:18;100602.15;;;11.08;75.62
55517;BME280;41724;51.176;-0.708;2023-03-21T04:03:47;100628.69;;;10.53;77.63
55517;BME280;41724;51.176;-0.708;2023-03-21T04:06:15;100636.40;;;9.24;83.75
55517;BME280;41724;51.176;-0.708;2023-03-21T04:08:42;100632.10;;;9.88;83.69
55517;BME280;41724;51.176;-0.708;2023-03-21T04:11:10;100617.08;;;9.62;84.86
55517;BME280;41724;51.176;-0.708;2023-03-21T04:13:38;100617.66;;;9.80;83.44
55517;BME280;41724;51.176;-0.708;2023-03-21T04:16:06;100618.73;;;10.22;81.12
55517;BME280;41724;51.176;-0.708;2023-03-21T04:18:33;100623.88;;;10.27;82.49
55517;BME280;41724;51.176;-0.708;2023-03-21T04:21:00;100623.82;;;10.10;83.49
55517;BME280;41724;51.176;-0.708;2023-03-21T04:23:27;100623.52;;;9.42;84.62
55517;BME280;41724;51.176;-0.708;2023-03-21T04:25:55;100621.63;;;9.74;83.77
55517;BME280;41724;51.176;-0.708;2023-03-21T04:28:22;100619.71;;;9.27;87.03
55517;BME280;41724;51.176;-0.708;2023-03-21T04:30:49;100616.49;;;9.36;86.47
55517;BME280;41724;51.176;-0.708;2023-03-21T04:33:16;100611.99;;;8.66;89.41
55517;BME280;41724;51.176;-0.708;2023-03-21T04:35:43;100608.84;;;9.46;85.94
55517;BME280;41724;51.176;-0.708;2023-03-21T04:38:10;100607.55;;;8.43;90.15
55517;BME280;41724;51.176;-0.708;2023-03-21T04:40:37;100601.83;;;9.21;88.11
55517;BME280;41724;51.176;-0.708;2023-03-21T04:43:04;100594.46;;;9.50;86.49
55517;BME280;41724;51.176;-0.708;2023-03-21T04:45:31;100590.40;;;9.68;85.27
55517;BME280;41724;51.176;-0.708;2023-03-21T04:47:58;100592.35;;;9.97;83.74
55517;BME280;41724;51.176;-0.708;2023-03-21T04:50:25;100584.33;;;9.38;86.50
55517;BME280;41724;51.176;-0.708;2023-03-21T04:52:52;100583.05;;;9.65;85.89
55517;BME280;41724;51.176;-0.708;2023-03-21T04:55:20;100576.63;;;7.98;91.82
55517;BME280;41724;51.176;-0.708;2023-03-21T04:57:47;100574.70;;;8.67;89.43
55517;BME280;41724;51.176;-0.708;2023-03-21T05:00:15;100576.54;;;8.84;89.88
55517;BME280;41724;51.176;-0.708;2023-03-21T05:02:42;100582.78;;;8.12;92.33
55517;BME280;41724;51.176;-0.708;2023-03-21T05:05:10;100575.06;;;8.54;90.84
55517;BME280;41724;51.176;-0.708;2023-03-21T05:07:38;100574.51;;;8.47;91.35
55517;BME280;41724;51.176;-0.708;2023-03-21T05:10:07;100578.51;;;7.53;94.74
55517;BME280;41724;51.176;-0.708;2023-03-21T05:12:35;100572.15;;;7.80;95.21
55517;BME280;41724;51.176;-0.708;2023-03-21T05:15:02;100567.07;;;8.36;91.08
55517;BME280;41724;51.176;-0.708;2023-03-21T05:17:30;100560.60;;;7.93;95.01
55517;BME280;41724;51.176;-0.708;2023-03-21T05:19:57;100561.78;;;8.69;90.75
55517;BME280;41724;51.176;-0.708;2023-03-21T05:22:24;100563.24;;;9.09;89.95
55517;BME280;41724;51.176;-0.708;2023-03-21T05:24:52;100549.66;;;8.65;91.81
55517;BME280;41724;51.176;-0.708;2023-03-21T05:27:21;100554.01;;;9.65;87.70
55517;BME280;41724;51.176;-0.708;2023-03-21T05:29:49;100546.60;;;9.99;84.45
55517;BME280;41724;51.176;-0.708;2023-03-21T05:32:16;100542.48;;;10.55;82.24
55517;BME280;41724;51.176;-0.708;2023-03-21T05:34:43;100542.75;;;10.35;82.11
55517;BME280;41724;51.176;-0.708;2023-03-21T05:37:10;100535.74;;;9.88;83.51
55517;BME280;41724;51.176;-0.708;2023-03-21T05:39:37;100538.23;;;10.33;81.66
55517;BME280;41724;51.176;-0.708;2023-03-21T05:42:04;100536.37;;;10.45;80.00
55517;BME280;41724;51.176;-0.708;2023-03-21T05:44:31;100532.84;;;10.92;78.69
55517;BME280;41724;51.176;-0.708;2023-03-21T05:46:58;100535.82;;;10.42;79.74
55517;BME280;41724;51.176;-0.708;2023-03-21T05:49:25;100540.26;;;10.49;78.89
55517;BME280;41724;51.176;-0.708;2023-03-21T05:51:52;100543.78;;;8.99;85.75
55517;BME280;41724;51.176;-0.708;2023-03-21T05:54:19;100541.25;;;9.08;86.99
55517;BME280;41724;51.176;-0.708;2023-03-21T05:56:47;100537.54;;;8.55;89.78
55517;BME280;41724;51.176;-0.708;2023-03-21T05:59:14;100534.96;;;8.55;92.05
55517;BME280;41724;51.176;-0.708;2023-03-21T06:01:41;100536.43;;;9.54;86.96
55517;BME280;41724;51.176;-0.708;2023-03-21T06:04:08;100543.46;;;9.31;87.28
55517;BME280;41724;51.176;-0.708;2023-03-21T06:06:35;100534.46;;;8.91;91.23
55517;BME280;41724;51.176;-0.708;2023-03-21T06:09:02;100531.67;;;8.38;91.64
55517;BME280;41724;51.176;-0.708;2023-03-21T06:11:31;100533.32;;;9.56;87.13
55517;BME280;41724;51.176;-0.708;2023-03-21T06:13:59;100540.18;;;9.76;86.09
55517;BME280;41724;51.176;-0.708;2023-03-21T06:16:27;100537.89;;;9.39;86.93
55517;BME280;41724;51.176;-0.708;2023-03-21T06:18:53;100541.25;;;9.57;87.55
55517;BME280;41724;51.176;-0.708;2023-03-21T06:21:21;100538.09;;;9.21;88.67
55517;BME280;41724;51.176;-0.708;2023-03-21T06:23:48;100539.52;;;9.06;89.10
55517;BME280;41724;51.176;-0.708;2023-03-21T06:26:16;100537.34;;;8.70;91.28
55517;BME280;41724;51.176;-0.708;2023-03-21T06:28:43;100538.78;;;9.48;88.33
55517;BME280;41724;51.176;-0.708;2023-03-21T06:31:10;100532.54;;;10.13;85.27
55517;BME280;41724;51.176;-0.708;2023-03-21T06:33:37;100539.28;;;10.42;83.93
55517;BME280;41724;51.176;-0.708;2023-03-21T06:36:05;100541.55;;;9.28;87.01
55517;BME280;41724;51.176;-0.708;2023-03-21T06:38:32;100538.69;;;10.37;84.35
55517;BME280;41724;51.176;-0.708;2023-03-21T06:40:59;100542.15;;;10.07;82.82
55517;BME280;41724;51.176;-0.708;2023-03-21T06:43:26;100541.94;;;10.77;82.59
55517;BME280;41724;51.176;-0.708;2023-03-21T06:45:53;100541.88;;;10.01;83.11
55517;BME280;41724;51.176;-0.708;2023-03-21T06:48:20;100536.62;;;10.26;82.93
55517;BME280;41724;51.176;-0.708;2023-03-21T06:50:47;100528.80;;;10.47;82.68
55517;BME280;41724;51.176;-0.708;2023-03-21T06:53:15;100523.94;;;10.99;82.38
55517;BME280;41724;51.176;-0.708;2023-03-21T06:55:48;100520.81;;;10.74;81.58
55517;BME280;41724;51.176;-0.708;2023-03-21T06:58:15;100517.99;;;10.94;80.67
55517;BME280;41724;51.176;-0.708;2023-03-21T07:00:42;100517.89;;;11.48;79.41
55517;BME280;41724;51.176;-0.708;2023-03-21T07:03:10;100520.10;;;10.45;81.89
55517;BME280;41724;51.176;-0.708;2023-03-21T07:05:38;100520.39;;;10.14;86.01
55517;BME280;41724;51.176;-0.708;2023-03-21T07:08:05;100520.42;;;9.56;88.67
55517;BME280;41724;51.176;-0.708;2023-03-21T07:10:33;100517.13;;;10.85;84.74
55517;BME280;41724;51.176;-0.708;2023-03-21T07:13:00;100518.89;;;10.61;84.89
55517;BME280;41724;51.176;-0.708;2023-03-21T07:15:28;100521.07;;;9.37;89.23
55517;BME280;41724;51.176;-0.708;2023-03-21T07:17:55;100524.41;;;9.64;90.40
55517;BME280;41724;51.176;-0.708;2023-03-21T07:20:22;100522.70;;;10.09;87.40
55517;BME280;41724;51.176;-0.708;2023-03-21T07:22:49;100516.36;;;10.06;86.15
55517;BME280;41724;51.176;-0.708;2023-03-21T07:25:16;100527.95;;;10.02;86.75
55517;BME280;41724;51.176;-0.708;2023-03-21T07:27:43;100522.94;;;9.59;90.32
55517;BME280;41724;51.176;-0.708;2023-03-21T07:30:11;100523.29;;;9.67;89.39
55517;BME280;41724;51.176;-0.708;2023-03-21T07:32:39;100522.77;;;9.29;92.39
55517;BME280;41724;51.176;-0.708;2023-03-21T07:35:08;100521.21;;;9.69;90.53
55517;BME280;41724;51.176;-0.708;2023-03-21T07:37:36;100523.30;;;9.66;90.69
55517;BME280;41724;51.176;-0.708;2023-03-21T07:40:04;100523.90;;;9.14;93.55
55517;BME280;41724;51.176;-0.708;2023-03-21T07:42:31;100524.50;;;9.22;95.05
55517;BME280;41724;51.176;-0.708;2023-03-21T07:44:58;100525.27;;;9.49;93.22
55517;BME280;41724;51.176;-0.708;2023-03-21T07:47:25;100527.93;;;9.14;93.94
55517;BME280;41724;51.176;-0.708;2023-03-21T07:49:52;100529.87;;;8.18;98.91
55517;BME280;41724;51.176;-0.708;2023-03-21T07:52:20;100531.43;;;8.28;100.00
55517;BME280;41724;51.176;-0.708;2023-03-21T07:54:47;100527.25;;;8.89;97.78
55517;BME280;41724;51.176;-0.708;2023-03-21T07:57:14;100530.59;;;8.95;96.80
55517;BME280;41724;51.176;-0.708;2023-03-21T07:59:41;100530.26;;;9.51;93.95
55517;BME280;41724;51.176;-0.708;2023-03-21T08:02:10;100540.41;;;9.29;95.26
55517;BME280;41724;51.176;-0.708;2023-03-21T08:04:39;100536.57;;;9.58;92.95
55517;BME280;41724;51.176;-0.708;2023-03-21T08:07:06;100537.78;;;9.58;92.93
55517;BME280;41724;51.176;-0.708;2023-03-21T08:09:34;100542.01;;;10.61;89.68
55517;BME280;41724;51.176;-0.708;2023-03-21T08:12:01;100548.88;;;9.54;93.07
55517;BME280;41724;51.176;-0.708;2023-03-21T08:14:29;100544.04;;;9.46;93.99
55517;BME280;41724;51.176;-0.708;2023-03-21T08:16:56;100540.08;;;9.41;93.91
55517;BME280;41724;51.176;-0.708;2023-03-21T08:19:23;100522.86;;;10.07;91.00
55517;BME280;41724;51.176;-0.708;2023-03-21T08:21:52;100517.55;;;9.77;92.64
55517;BME280;41724;51.176;-0.708;2023-03-21T08:24:19;100512.55;;;10.71;88.59
55517;BME280;41724;51.176;-0.708;2023-03-21T08:26:46;100512.14;;;10.31;87.95
55517;BME280;41724;51.176;-0.708;2023-03-21T08:29:13;100509.30;;;10.75;88.28
55517;BME280;41724;51.176;-0.708;2023-03-21T08:31:41;100513.69;;;11.67;84.32
55517;BME280;41724;51.176;-0.708;2023-03-21T08:34:08;100497.42;;;10.51;86.96
55517;BME280;41724;51.176;-0.708;2023-03-21T08:36:36;100502.44;;;10.09;89.26
55517;BME280;41724;51.176;-0.708;2023-03-21T08:39:02;100507.66;;;10.19;90.10
55517;BME280;41724;51.176;-0.708;2023-03-21T08:41:30;100509.23;;;10.37;89.85
55517;BME280;41724;51.176;-0.708;2023-03-21T08:43:57;100490.92;;;11.00;87.10
55517;BME280;41724;51.176;-0.708;2023-03-21T08:46:24;100485.26;;;10.64;87.64
55517;BME280;41724;51.176;-0.708;2023-03-21T08:48:51;100496.82;;;10.40;91.00
55517;BME280;41724;51.176;-0.708;2023-03-21T08:51:18;100489.82;;;10.77;89.11
55517;BME280;41724;51.176;-0.708;2023-03-21T08:53:45;100483.20;;;9.98;90.75
55517;BME280;41724;51.176;-0.708;2023-03-21T08:56:12;100485.31;;;10.59;91.25
55517;BME280;41724;51.176;-0.708;2023-03-21T08:58:39;100479.34;;;10.59;88.95
55517;BME280;41724;51.176;-0.708;2023-03-21T09:01:07;100484.80;;;10.11;92.12
55517;BME280;41724;51.176;-0.708;2023-03-21T09:03:33;100491.79;;;10.26;92.35
55517;BME280;41724;51.176;-0.708;2023-03-21T09:06:01;100494.75;;;10.71;91.16
55517;BME280;41724;51.176;-0.708;2023-03-21T09:08:28;100490.57;;;10.66;91.67
55517;BME280;41724;51.176;-0.708;2023-03-21T09:10:55;100492.85;;;10.26;95.47
55517;BME280;41724;51.176;-0.708;2023-03-21T09:13:23;100493.99;;;10.99;91.05
55517;BME280;41724;51.176;-0.708;2023-03-21T09:15:50;100492.45;;;11.78;89.12
55517;BME280;41724;51.176;-0.708;2023-03-21T09:18:17;100491.35;;;10.75;93.54
55517;BME280;41724;51.176;-0.708;2023-03-21T09:20:45;100495.34;;;10.91;89.94
55517;BME280;41724;51.176;-0.708;2023-03-21T09:23:13;100497.66;;;10.17;96.34
55517;BME280;41724;51.176;-0.708;2023-03-21T09:25:45;100499.64;;;10.07;96.32
55517;BME280;41724;51.176;-0.708;2023-03-21T09:28:12;100501.49;;;10.14;95.30
55517;BME280;41724;51.176;-0.708;2023-03-21T09:30:39;100504.15;;;10.06;96.69
55517;BME280;41724;51.176;-0.708;2023-03-21T09:33:07;100519.82;;;10.55;95.52
55517;BME280;41724;51.176;-0.708;2023-03-21T09:35:34;100514.20;;;9.61;99.73
55517;BME280;41724;51.176;-0.708;2023-03-21T09:38:01;100505.26;;;10.04;98.68
55517;BME280;41724;51.176;-0.708;2023-03-21T09:40:38;100508.45;;;9.15;100.00
55517;BME280;41724;51.176;-0.708;2023-03-21T09:43:21;100496.94;;;9.73;98.72
55517;BME280;41724;51.176;-0.708;2023-03-21T09:45:58;100500.54;;;10.32;95.84
55517;BME280;41724;51.176;-0.708;2023-03-21T09:48:35;100516.36;;;9.89;95.57
55517;BME280;41724;51.176;-0.708;2023-03-21T09:51:09;100497.30;;;9.52;97.15
55517;BME280;41724;51.176;-0.708;2023-03-21T09:53:42;100497.72;;;9.54;97.01
55517;BME280;41724;51.176;-0.708;2023-03-21T09:56:11;100499.01;;;10.35;92.69
55517;BME280;41724;51.176;-0.708;2023-03-21T09:58:42;100505.72;;;10.69;91.94
55517;BME280;41724;51.176;-0.708;2023-03-21T10:01:17;100501.49;;;11.13;88.97
55517;BME280;41724;51.176;-0.708;2023-03-21T10:03:45;100510.39;;;10.52;90.64
55517;BME280;41724;51.176;-0.708;2023-03-21T10:06:13;100507.70;;;10.72;88.19
55517;BME280;41724;51.176;-0.708;2023-03-21T10:08:44;100504.20;;;10.26;88.49
55517;BME280;41724;51.176;-0.708;2023-03-21T10:11:14;100500.19;;;10.94;86.64
55517;BME280;41724;51.176;-0.708;2023-03-21T10:13:48;100503.69;;;10.99;85.43
55517;BME280;41724;51.176;-0.708;2023-03-21T10:16:20;100496.55;;;10.50;86.28
55517;BME280;41724;51.176;-0.708;2023-03-21T10:18:49;100504.16;;;10.59;86.93
55517;BME280;41724;51.176;-0.708;2023-03-21T10:21:20;100500.51;;;10.05;89.32
55517;BME280;41724;51.176;-0.708;2023-03-21T10:23:48;100501.64;;;10.51;88.09
55517;BME280;41724;51.176;-0.708;2023-03-21T10:26:18;100500.27;;;10.31;89.82
55517;BME280;41724;51.176;-0.708;2023-03-21T10:28:46;100502.05;;;10.73;85.49
55517;BME280;41724;51.176;-0.708;2023-03-21T10:31:16;100504.25;;;11.48;84.69
55517;BME280;41724;51.176;-0.708;2023-03-21T10:33:48;100495.65;;;10.87;86.49
55517;BME280;41724;51.176;-0.708;2023-03-21T10:36:18;100488.27;;;11.07;85.18
55517;BME280;41724;51.176;-0.708;2023-03-21T10:38:50;100485.29;;;11.59;82.66
55517;BME280;41724;51.176;-0.708;2023-03-21T10:41:18;100478.68;;;11.04;85.62
55517;BME280;41724;51.176;-0.708;2023-03-21T10:43:46;100470.25;;;11.98;83.18
55517;BME280;41724;51.176;-0.708;2023-03-21T10:46:17;100465.61;;;12.52;81.23
55517;BME280;41724;51.176;-0.708;2023-03-21T10:48:50;100458.49;;;12.50;80.05
55517;BME280;41724;51.176;-0.708;2023-03-21T10:51:19;100462.75;;;12.74;79.31
55517;BME280;41724;51.176;-0.708;2023-03-21T10:53:50;100455.98;;;12.87;80.48
55517;BME280;41724;51.176;-0.708;2023-03-21T10:56:22;100464.05;;;10.70;86.19
55517;BME280;41724;51.176;-0.708;2023-03-21T10:58:51;100464.58;;;12.20;82.69
55517;BME280;41724;51.176;-0.708;2023-03-21T11:01:26;100460.95;;;11.27;85.34
55517;BME280;41724;51.176;-0.708;2023-03-21T11:03:56;100459.56;;;11.25;86.86
55517;BME280;41724;51.176;-0.708;2023-03-21T11:06:27;100448.45;;;11.77;83.83
55517;BME280;41724;51.176;-0.708;2023-03-21T11:09:00;100446.98;;;11.68;84.88
55517;BME280;41724;51.176;-0.708;2023-03-21T11:11:33;100447.49;;;11.49;83.68
55517;BME280;41724;51.176;-0.708;2023-03-21T11:14:03;100442.24;;;11.15;86.58
55517;BME280;41724;51.176;-0.708;2023-03-21T11:16:35;100442.86;;;11.33;86.99
55517;BME280;41724;51.176;-0.708;2023-03-21T11:19:12;100441.65;;;11.61;84.24
55517;BME280;41724;51.176;-0.708;2023-03-21T11:21:40;100439.21;;;12.61;80.34
55517;BME280;41724;51.176;-0.708;2023-03-21T11:24:12;100442.41;;;11.98;81.98
55517;BME280;41724;51.176;-0.708;2023-03-21T11:26:39;100446.59;;;11.16;85.51
55517;BME280;41724;51.176;-0.708;2023-03-21T11:29:19;100446.02;;;12.11;81.46
55517;BME280;41724;51.176;-0.708;2023-03-21T11:31:49;100444.75;;;10.85;86.32
55517;BME280;41724;51.176;-0.708;2023-03-21T11:34:24;100449.36;;;10.93;86.10
55517;BME280;41724;51.176;-0.708;2023-03-21T11:36:58;100445.97;;;10.66;87.53
55517;BME280;41724;51.176;-0.708;2023-03-21T11:39:30;100444.38;;;11.77;84.29
55517;BME280;41724;51.176;-0.708;2023-03-21T11:41:58;100448.96;;;11.03;83.32
55517;BME280;41724;51.176;-0.708;2023-03-21T11:44:29;100452.43;;;11.52;83.73
55517;BME280;41724;51.176;-0.708;2023-03-21T11:46:57;100452.44;;;11.77;80.29
55517;BME280;41724;51.176;-0.708;2023-03-21T11:49:25;100453.60;;;12.02;77.68
55517;BME280;41724;51.176;-0.708;2023-03-21T11:52:04;100463.72;;;11.34;81.71
55517;BME280;41724;51.176;-0.708;2023-03-21T11:54:44;100463.19;;;11.05;85.18
55517;BME280;41724;51.176;-0.708;2023-03-21T11:57:21;100448.68;;;11.17;82.51
55517;BME280;41724;51.176;-0.708;2023-03-21T11:59:59;100468.99;;;10.43;85.74
55517;BME280;41724;51.176;-0.708;2023-03-21T12:02:49;100453.86;;;11.23;82.20
55517;BME280;41724;51.176;-0.708;2023-03-21T12:05:25;100452.84;;;11.58;81.64
55517;BME280;41724;51.176;-0.708;2023-03-21T12:07:59;100458.62;;;11.07;80.96
55517;BME280;41724;51.176;-0.708;2023-03-21T12:10:34;100455.80;;;11.57;80.11
55517;BME280;41724;51.176;-0.708;2023-03-21T12:13:15;100467.48;;;11.42;80.64
55517;BME280;41724;51.176;-0.708;2023-03-21T12:15:52;100461.81;;;11.47;82.68
55517;BME280;41724;51.176;-0.708;2023-03-21T12:19:12;100452.22;;;11.38;81.24
55517;BME280;41724;51.176;-0.708;2023-03-21T12:21:50;100454.91;;;11.12;83.26
55517;BME280;41724;51.176;-0.708;2023-03-21T12:24:21;100442.18;;;11.21;82.41
55517;BME280;41724;51.176;-0.708;2023-03-21T12:26:56;100438.47;;;11.62;80.72
55517;BME280;41724;51.176;-0.708;2023-03-21T12:29:34;100431.52;;;11.76;77.96
55517;BME280;41724;51.176;-0.708;2023-03-21T12:32:11;100427.31;;;12.08;79.11
55517;BME280;41724;51.176;-0.708;2023-03-21T12:35:05;100434.39;;;12.69;77.05
55517;BME280;41724;51.176;-0.708;2023-03-21T12:37:43;100434.37;;;11.54;79.28
55517;BME280;41724;51.176;-0.708;2023-03-21T12:40:23;100432.61;;;11.86;80.03
55517;BME280;41724;51.176;-0.708;2023-03-21T12:43:09;100426.63;;;11.91;80.57
55517;BME280;41724;51.176;-0.708;2023-03-21T12:45:41;100433.56;;;12.48;76.35
55517;BME280;41724;51.176;-0.708;2023-03-21T12:48:16;100439.71;;;12.74;76.34
55517;BME280;41724;51.176;-0.708;2023-03-21T12:50:49;100450.54;;;11.47;77.41
55517;BME280;41724;51.176;-0.708;2023-03-21T12:53:29;100435.19;;;12.17;77.15
55517;BME280;41724;51.176;-0.708;2023-03-21T12:56:06;100428.26;;;12.50;75.19
55517;BME280;41724;51.176;-0.708;2023-03-21T12:58:43;100424.62;;;12.76;74.24